sensor_id;sensor_type;location;lat;lon;timestamp;P1;durP1;ratioP1;P2;durP2;ratioP2
46084;SDS011;31823;47.032;8.310;2022-07-03T00:00:17;3.75;;;3.45;;
46084;SDS011;31823;47.032;8.310;2022-07-03T00:02:43;4.40;;;3.40;;
46084;SDS011;31823;47.032;8.310;2022-07-03T00:05:08;8.57;;;4.13;;
46084;SDS011;31823;47.032;8.310;2022-07-03T00:07:36;4.47;;;3.85;;
46084;SDS011;31823;47.032;8.310;2022-07-03T00:10:02;6.78;;;4.25;;
46084;SDS011;31823;47.032;8.310;2022-07-03T00:12:28;7.18;;;4.03;;
46084;SDS011;31823;47.032;8.310;2022-07-03T00:14:55;5.53;;;3.97;;
46084;SDS011;31823;47.032;8.310;2022-07-03T00:17:21;10.15;;;3.83;;
46084;SDS011;31823;47.032;8.310;2022-07-03T00:19:46;4.40;;;4.00;;
46084;SDS011;31823;47.032;8.310;2022-07-03T00:22:13;7.30;;;3.72;;
46084;SDS011;31823;47.032;8.310;2022-07-03T00:27:18;8.63;;;4.72;;
46084;SDS011;31823;47.032;8.310;2022-07-03T00:29:45;4.97;;;4.50;;
46084;SDS011;31823;47.032;8.310;2022-07-03T00:32:14;5.28;;;4.38;;
46084;SDS011;31823;47.032;8.310;2022-07-03T00:34:46;5.20;;;4.70;;
46084;SDS011;31823;47.032;8.310;2022-07-03T00:37:14;6.78;;;4.18;;
46084;SDS011;31823;47.032;8.310;2022-07-03T00:39:41;11.45;;;5.18;;
46084;SDS011;31823;47.032;8.310;2022-07-03T00:42:08;9.60;;;5.20;;
46084;SDS011;31823;47.032;8.310;2022-07-03T00:44:41;4.50;;;4.10;;
46084;SDS011;31823;47.032;8.310;2022-07-03T00:47:12;5.63;;;4.57;;
46084;SDS011;31823;47.032;8.310;2022-07-03T00:49:39;4.50;;;4.05;;
46084;SDS011;31823;47.032;8.310;2022-07-03T00:52:06;8.43;;;4.63;;
46084;SDS011;31823;47.032;8.310;2022-07-03T00:54:36;7.07;;;4.63;;
46084;SDS011;31823;47.032;8.310;2022-07-03T00:57:07;5.60;;;3.88;;
46084;SDS011;31823;47.032;8.310;2022-07-03T00:59:39;5.40;;;3.92;;
46084;SDS011;31823;47.032;8.310;2022-07-03T01:02:05;4.30;;;3.85;;
46084;SDS011;31823;47.032;8.310;2022-07-03T01:04:36;4.90;;;3.50;;
46084;SDS011;31823;47.032;8.310;2022-07-03T01:10:12;5.45;;;3.80;;
46084;SDS011;31823;47.032;8.310;2022-07-03T01:12:54;5.72;;;3.20;;
46084;SDS011;31823;47.032;8.310;2022-07-03T01:15:49;3.42;;;3.00;;
46084;SDS011;31823;47.032;8.310;2022-07-03T01:18:17;4.00;;;3.17;;
46084;SDS011;31823;47.032;8.310;2022-07-03T01:20:58;6.18;;;3.08;;
46084;SDS011;31823;47.032;8.310;2022-07-03T01:26:18;4.53;;;2.45;;
46084;SDS011;31823;47.032;8.310;2022-07-03T01:28:45;6.93;;;2.35;;
46084;SDS011;31823;47.032;8.310;2022-07-03T01:31:13;6.07;;;2.42;;
46084;SDS011;31823;47.032;8.310;2022-07-03T01:33:45;4.88;;;2.30;;
46084;SDS011;31823;47.032;8.310;2022-07-03T01:36:15;4.70;;;2.20;;
46084;SDS011;31823;47.032;8.310;2022-07-03T01:38:42;5.35;;;2.63;;
46084;SDS011;31823;47.032;8.310;2022-07-03T01:41:09;3.58;;;2.55;;
46084;SDS011;31823;47.032;8.310;2022-07-03T01:43:42;6.72;;;2.42;;
46084;SDS011;31823;47.032;8.310;2022-07-03T01:46:27;4.90;;;2.40;;
46084;SDS011;31823;47.032;8.310;2022-07-03T01:48:55;5.15;;;2.83;;
46084;SDS011;31823;47.032;8.310;2022-07-03T01:51:21;3.90;;;2.65;;
46084;SDS011;31823;47.032;8.310;2022-07-03T01:53:49;5.72;;;3.10;;
46084;SDS011;31823;47.032;8.310;2022-07-03T01:56:17;3.80;;;2.60;;
46084;SDS011;31823;47.032;8.310;2022-07-03T01:58:43;4.03;;;2.97;;
46084;SDS011;31823;47.032;8.310;2022-07-03T02:03:57;4.97;;;2.88;;
46084;SDS011;31823;47.032;8.310;2022-07-03T02:09:08;4.47;;;3.08;;
46084;SDS011;31823;47.032;8.310;2022-07-03T02:11:36;4.28;;;3.28;;
46084;SDS011;31823;47.032;8.310;2022-07-03T02:22:22;4.05;;;2.97;;
46084;SDS011;31823;47.032;8.310;2022-07-03T02:24:52;5.20;;;2.95;;
46084;SDS011;31823;47.032;8.310;2022-07-03T02:27:22;3.47;;;3.17;;
46084;SDS011;31823;47.032;8.310;2022-07-03T02:30:02;8.15;;;2.90;;
46084;SDS011;31823;47.032;8.310;2022-07-03T02:32:30;5.13;;;2.90;;
46084;SDS011;31823;47.032;8.310;2022-07-03T02:35:10;6.65;;;3.10;;
46084;SDS011;31823;47.032;8.310;2022-07-03T02:37:45;3.33;;;3.03;;
46084;SDS011;31823;47.032;8.310;2022-07-03T02:40:57;2.63;;;2.42;;
46084;SDS011;31823;47.032;8.310;2022-07-03T02:49:18;7.38;;;2.90;;
46084;SDS011;31823;47.032;8.310;2022-07-03T02:51:52;4.10;;;2.88;;
46084;SDS011;31823;47.032;8.310;2022-07-03T02:54:26;2.72;;;2.53;;
46084;SDS011;31823;47.032;8.310;2022-07-03T02:57:07;3.67;;;2.00;;
46084;SDS011;31823;47.032;8.310;2022-07-03T03:07:29;1.98;;;1.88;;
46084;SDS011;31823;47.032;8.310;2022-07-03T03:10:15;4.15;;;1.95;;
46084;SDS011;31823;47.032;8.310;2022-07-03T03:12:45;5.30;;;2.10;;
46084;SDS011;31823;47.032;8.310;2022-07-03T03:15:12;9.13;;;1.85;;
46084;SDS011;31823;47.032;8.310;2022-07-03T03:17:43;2.50;;;1.75;;
46084;SDS011;31823;47.032;8.310;2022-07-03T03:20:14;6.38;;;1.70;;
46084;SDS011;31823;47.032;8.310;2022-07-03T03:25:35;3.38;;;1.50;;
46084;SDS011;31823;47.032;8.310;2022-07-03T03:28:01;2.45;;;1.70;;
46084;SDS011;31823;47.032;8.310;2022-07-03T03:30:27;5.60;;;2.03;;
46084;SDS011;31823;47.032;8.310;2022-07-03T03:32:53;10.75;;;2.20;;
46084;SDS011;31823;47.032;8.310;2022-07-03T03:35:18;1.98;;;1.80;;
46084;SDS011;31823;47.032;8.310;2022-07-03T03:37:44;5.05;;;1.60;;
46084;SDS011;31823;47.032;8.310;2022-07-03T03:40:13;4.50;;;1.90;;
46084;SDS011;31823;47.032;8.310;2022-07-03T03:42:41;3.20;;;2.00;;
46084;SDS011;31823;47.032;8.310;2022-07-03T03:45:06;2.00;;;1.80;;
46084;SDS011;31823;47.032;8.310;2022-07-03T03:47:33;5.78;;;2.00;;
46084;SDS011;31823;47.032;8.310;2022-07-03T03:49:59;2.25;;;2.05;;
46084;SDS011;31823;47.032;8.310;2022-07-03T03:52:25;8.68;;;1.83;;
46084;SDS011;31823;47.032;8.310;2022-07-03T03:54:52;6.22;;;2.20;;
46084;SDS011;31823;47.032;8.310;2022-07-03T03:57:22;5.25;;;2.13;;
46084;SDS011;31823;47.032;8.310;2022-07-03T03:59:49;2.53;;;2.17;;
46084;SDS011;31823;47.032;8.310;2022-07-03T04:02:15;2.90;;;2.00;;
46084;SDS011;31823;47.032;8.310;2022-07-03T04:04:41;17.23;;;2.30;;
46084;SDS011;31823;47.032;8.310;2022-07-03T04:07:07;5.00;;;2.20;;
46084;SDS011;31823;47.032;8.310;2022-07-03T04:09:33;2.38;;;2.17;;
46084;SDS011;31823;47.032;8.310;2022-07-03T04:11:59;6.93;;;2.88;;
46084;SDS011;31823;47.032;8.310;2022-07-03T04:14:25;2.55;;;2.33;;
46084;SDS011;31823;47.032;8.310;2022-07-03T04:16:50;4.47;;;2.22;;
46084;SDS011;31823;47.032;8.310;2022-07-03T04:19:16;2.83;;;2.53;;
46084;SDS011;31823;47.032;8.310;2022-07-03T04:21:42;2.58;;;2.38;;
46084;SDS011;31823;47.032;8.310;2022-07-03T04:24:08;2.80;;;2.50;;
46084;SDS011;31823;47.032;8.310;2022-07-03T04:26:33;2.40;;;2.20;;
46084;SDS011;31823;47.032;8.310;2022-07-03T04:28:59;3.08;;;2.75;;
46084;SDS011;31823;47.032;8.310;2022-07-03T04:31:25;4.18;;;2.35;;
46084;SDS011;31823;47.032;8.310;2022-07-03T04:33:50;5.10;;;2.47;;
46084;SDS011;31823;47.032;8.310;2022-07-03T04:36:16;3.10;;;2.20;;
46084;SDS011;31823;47.032;8.310;2022-07-03T04:38:42;3.83;;;2.40;;
46084;SDS011;31823;47.032;8.310;2022-07-03T04:41:08;4.15;;;2.15;;
46084;SDS011;31823;47.032;8.310;2022-07-03T04:43:34;3.15;;;2.30;;
46084;SDS011;31823;47.032;8.310;2022-07-03T04:45:59;2.72;;;2.15;;
46084;SDS011;31823;47.032;8.310;2022-07-03T04:48:27;3.95;;;2.25;;
46084;SDS011;31823;47.032;8.310;2022-07-03T04:50:56;4.80;;;2.60;;
46084;SDS011;31823;47.032;8.310;2022-07-03T04:53:22;4.07;;;2.95;;
46084;SDS011;31823;47.032;8.310;2022-07-03T04:55:48;3.92;;;3.42;;
46084;SDS011;31823;47.032;8.310;2022-07-03T04:58:14;6.20;;;3.20;;
46084;SDS011;31823;47.032;8.310;2022-07-03T05:00:40;3.97;;;3.10;;
46084;SDS011;31823;47.032;8.310;2022-07-03T05:03:06;4.63;;;3.20;;
46084;SDS011;31823;47.032;8.310;2022-07-03T05:05:32;3.60;;;3.30;;
46084;SDS011;31823;47.032;8.310;2022-07-03T05:07:58;4.45;;;3.60;;
46084;SDS011;31823;47.032;8.310;2022-07-03T05:10:24;3.53;;;2.92;;
46084;SDS011;31823;47.032;8.310;2022-07-03T05:12:49;4.20;;;3.22;;
46084;SDS011;31823;47.032;8.310;2022-07-03T05:15:15;7.13;;;3.67;;
46084;SDS011;31823;47.032;8.310;2022-07-03T05:17:41;5.90;;;2.97;;
46084;SDS011;31823;47.032;8.310;2022-07-03T05:20:06;6.30;;;3.50;;
46084;SDS011;31823;47.032;8.310;2022-07-03T05:22:51;7.25;;;3.22;;
46084;SDS011;31823;47.032;8.310;2022-07-03T05:25:18;4.95;;;3.80;;
46084;SDS011;31823;47.032;8.310;2022-07-03T05:27:44;5.68;;;3.20;;
46084;SDS011;31823;47.032;8.310;2022-07-03T05:30:10;5.90;;;3.22;;
46084;SDS011;31823;47.032;8.310;2022-07-03T05:32:36;4.85;;;3.50;;
46084;SDS011;31823;47.032;8.310;2022-07-03T05:35:03;7.25;;;3.90;;
46084;SDS011;31823;47.032;8.310;2022-07-03T05:37:29;4.78;;;3.28;;
46084;SDS011;31823;47.032;8.310;2022-07-03T05:39:55;5.55;;;3.00;;
46084;SDS011;31823;47.032;8.310;2022-07-03T05:42:20;5.75;;;3.90;;
46084;SDS011;31823;47.032;8.310;2022-07-03T05:44:46;6.70;;;4.10;;
46084;SDS011;31823;47.032;8.310;2022-07-03T05:47:12;5.50;;;3.35;;
46084;SDS011;31823;47.032;8.310;2022-07-03T05:49:37;5.05;;;3.35;;
46084;SDS011;31823;47.032;8.310;2022-07-03T05:52:03;6.22;;;3.38;;
46084;SDS011;31823;47.032;8.310;2022-07-03T05:54:29;7.15;;;3.63;;
46084;SDS011;31823;47.032;8.310;2022-07-03T05:56:55;6.30;;;3.30;;
46084;SDS011;31823;47.032;8.310;2022-07-03T05:59:20;3.60;;;3.20;;
46084;SDS011;31823;47.032;8.310;2022-07-03T06:01:46;5.88;;;3.22;;
46084;SDS011;31823;47.032;8.310;2022-07-03T06:04:11;7.35;;;4.10;;
46084;SDS011;31823;47.032;8.310;2022-07-03T06:06:37;5.85;;;3.10;;
46084;SDS011;31823;47.032;8.310;2022-07-03T06:09:03;4.50;;;2.70;;
46084;SDS011;31823;47.032;8.310;2022-07-03T06:11:28;3.65;;;3.20;;
46084;SDS011;31823;47.032;8.310;2022-07-03T06:13:54;5.25;;;2.88;;
46084;SDS011;31823;47.032;8.310;2022-07-03T06:16:20;2.90;;;2.58;;
46084;SDS011;31823;47.032;8.310;2022-07-03T06:18:45;3.75;;;3.35;;
46084;SDS011;31823;47.032;8.310;2022-07-03T06:21:11;3.90;;;3.03;;
46084;SDS011;31823;47.032;8.310;2022-07-03T06:23:37;3.85;;;3.03;;
46084;SDS011;31823;47.032;8.310;2022-07-03T06:26:02;7.40;;;3.35;;
46084;SDS011;31823;47.032;8.310;2022-07-03T06:28:28;3.97;;;3.17;;
46084;SDS011;31823;47.032;8.310;2022-07-03T06:30:54;3.40;;;2.83;;
46084;SDS011;31823;47.032;8.310;2022-07-03T06:33:19;3.33;;;3.05;;
46084;SDS011;31823;47.032;8.310;2022-07-03T06:35:45;3.75;;;3.30;;
46084;SDS011;31823;47.032;8.310;2022-07-03T06:38:10;5.55;;;3.97;;
46084;SDS011;31823;47.032;8.310;2022-07-03T06:40:36;5.93;;;3.28;;
46084;SDS011;31823;47.032;8.310;2022-07-03T06:43:02;4.05;;;3.08;;
46084;SDS011;31823;47.032;8.310;2022-07-03T06:45:27;7.47;;;3.47;;
46084;SDS011;31823;47.032;8.310;2022-07-03T06:47:53;7.10;;;3.38;;
46084;SDS011;31823;47.032;8.310;2022-07-03T06:50:18;8.52;;;4.63;;
46084;SDS011;31823;47.032;8.310;2022-07-03T06:52:44;4.15;;;3.60;;
46084;SDS011;31823;47.032;8.310;2022-07-03T06:55:10;3.67;;;3.30;;
46084;SDS011;31823;47.032;8.310;2022-07-03T06:57:35;6.00;;;3.10;;
46084;SDS011;31823;47.032;8.310;2022-07-03T07:00:01;6.43;;;3.53;;
46084;SDS011;31823;47.032;8.310;2022-07-03T07:02:27;10.25;;;6.32;;
46084;SDS011;31823;47.032;8.310;2022-07-03T07:04:53;3.92;;;3.35;;
46084;SDS011;31823;47.032;8.310;2022-07-03T07:07:18;3.35;;;3.05;;
46084;SDS011;31823;47.032;8.310;2022-07-03T07:09:45;3.33;;;3.03;;
46084;SDS011;31823;47.032;8.310;2022-07-03T07:12:10;5.03;;;3.30;;
46084;SDS011;31823;47.032;8.310;2022-07-03T07:14:36;4.15;;;2.92;;
46084;SDS011;31823;47.032;8.310;2022-07-03T07:17:02;3.53;;;3.22;;
46084;SDS011;31823;47.032;8.310;2022-07-03T07:19:28;2.88;;;2.67;;
46084;SDS011;31823;47.032;8.310;2022-07-03T07:21:53;3.33;;;2.90;;
46084;SDS011;31823;47.032;8.310;2022-07-03T07:24:19;4.45;;;3.33;;
46084;SDS011;31823;47.032;8.310;2022-07-03T07:26:44;3.97;;;3.33;;
46084;SDS011;31823;47.032;8.310;2022-07-03T07:29:10;2.70;;;2.50;;
46084;SDS011;31823;47.032;8.310;2022-07-03T07:31:36;3.42;;;3.13;;
46084;SDS011;31823;47.032;8.310;2022-07-03T07:34:01;5.10;;;2.60;;
46084;SDS011;31823;47.032;8.310;2022-07-03T07:36:29;4.40;;;3.20;;
46084;SDS011;31823;47.032;8.310;2022-07-03T07:38:55;3.88;;;2.95;;
46084;SDS011;31823;47.032;8.310;2022-07-03T07:41:21;3.33;;;3.03;;
46084;SDS011;31823;47.032;8.310;2022-07-03T07:43:47;3.00;;;2.60;;
46084;SDS011;31823;47.032;8.310;2022-07-03T07:46:12;5.18;;;3.10;;
46084;SDS011;31823;47.032;8.310;2022-07-03T07:48:38;2.85;;;2.55;;
46084;SDS011;31823;47.032;8.310;2022-07-03T07:51:03;4.20;;;3.05;;
46084;SDS011;31823;47.032;8.310;2022-07-03T07:53:29;3.53;;;2.92;;
46084;SDS011;31823;47.032;8.310;2022-07-03T07:55:55;3.70;;;2.53;;
46084;SDS011;31823;47.032;8.310;2022-07-03T07:58:21;3.35;;;2.50;;
46084;SDS011;31823;47.032;8.310;2022-07-03T08:00:47;8.70;;;2.67;;
46084;SDS011;31823;47.032;8.310;2022-07-03T08:03:31;6.75;;;3.00;;
46084;SDS011;31823;47.032;8.310;2022-07-03T08:06:15;3.78;;;2.88;;
46084;SDS011;31823;47.032;8.310;2022-07-03T08:08:41;4.80;;;2.60;;
46084;SDS011;31823;47.032;8.310;2022-07-03T08:11:07;5.65;;;2.70;;
46084;SDS011;31823;47.032;8.310;2022-07-03T08:13:32;5.68;;;2.70;;
46084;SDS011;31823;47.032;8.310;2022-07-03T08:15:58;4.05;;;2.78;;
46084;SDS011;31823;47.032;8.310;2022-07-03T08:18:24;2.88;;;2.55;;
46084;SDS011;31823;47.032;8.310;2022-07-03T08:20:50;7.30;;;2.97;;
46084;SDS011;31823;47.032;8.310;2022-07-03T08:23:15;3.35;;;2.40;;
46084;SDS011;31823;47.032;8.310;2022-07-03T08:25:41;3.00;;;2.70;;
46084;SDS011;31823;47.032;8.310;2022-07-03T08:28:07;2.97;;;2.50;;
46084;SDS011;31823;47.032;8.310;2022-07-03T08:30:32;3.75;;;2.45;;
46084;SDS011;31823;47.032;8.310;2022-07-03T08:32:58;3.10;;;2.80;;
46084;SDS011;31823;47.032;8.310;2022-07-03T08:35:25;4.63;;;2.65;;
46084;SDS011;31823;47.032;8.310;2022-07-03T08:37:51;3.60;;;2.78;;
46084;SDS011;31823;47.032;8.310;2022-07-03T08:40:18;3.13;;;2.42;;
46084;SDS011;31823;47.032;8.310;2022-07-03T08:42:54;6.40;;;3.00;;
46084;SDS011;31823;47.032;8.310;2022-07-03T08:45:22;2.75;;;2.55;;
46084;SDS011;31823;47.032;8.310;2022-07-03T08:47:49;2.95;;;2.72;;
46084;SDS011;31823;47.032;8.310;2022-07-03T08:50:18;2.65;;;2.40;;
46084;SDS011;31823;47.032;8.310;2022-07-03T08:52:44;2.55;;;2.30;;
46084;SDS011;31823;47.032;8.310;2022-07-03T08:55:11;3.17;;;2.30;;
46084;SDS011;31823;47.032;8.310;2022-07-03T08:57:39;2.50;;;2.30;;
46084;SDS011;31823;47.032;8.310;2022-07-03T09:00:09;3.53;;;2.42;;
46084;SDS011;31823;47.032;8.310;2022-07-03T09:02:36;3.38;;;2.88;;
46084;SDS011;31823;47.032;8.310;2022-07-03T09:05:04;3.25;;;2.50;;
46084;SDS011;31823;47.032;8.310;2022-07-03T09:07:34;2.83;;;2.55;;
46084;SDS011;31823;47.032;8.310;2022-07-03T09:10:01;2.33;;;2.13;;
46084;SDS011;31823;47.032;8.310;2022-07-03T09:12:29;2.60;;;2.38;;
46084;SDS011;31823;47.032;8.310;2022-07-03T09:14:56;3.47;;;2.40;;
46084;SDS011;31823;47.032;8.310;2022-07-03T09:17:23;4.00;;;2.60;;
46084;SDS011;31823;47.032;8.310;2022-07-03T09:19:48;3.03;;;2.72;;
46084;SDS011;31823;47.032;8.310;2022-07-03T09:22:21;10.00;;;2.70;;
46084;SDS011;31823;47.032;8.310;2022-07-03T09:24:47;2.72;;;2.53;;
46084;SDS011;31823;47.032;8.310;2022-07-03T09:27:18;3.17;;;2.70;;
46084;SDS011;31823;47.032;8.310;2022-07-03T09:30:02;3.55;;;3.10;;
46084;SDS011;31823;47.032;8.310;2022-07-03T09:35:22;3.80;;;3.25;;
46084;SDS011;31823;47.032;8.310;2022-07-03T09:38:09;5.28;;;3.20;;
46084;SDS011;31823;47.032;8.310;2022-07-03T09:40:47;3.63;;;3.22;;
46084;SDS011;31823;47.032;8.310;2022-07-03T09:43:28;3.60;;;3.30;;
46084;SDS011;31823;47.032;8.310;2022-07-03T09:45:56;5.10;;;3.45;;
46084;SDS011;31823;47.032;8.310;2022-07-03T09:56:20;4.70;;;2.47;;
46084;SDS011;31823;47.032;8.310;2022-07-03T10:01:38;3.50;;;2.58;;
46084;SDS011;31823;47.032;8.310;2022-07-03T10:04:12;3.72;;;3.30;;
46084;SDS011;31823;47.032;8.310;2022-07-03T10:06:57;3.42;;;3.13;;
46084;SDS011;31823;47.032;8.310;2022-07-03T10:11:52;3.40;;;3.10;;
46084;SDS011;31823;47.032;8.310;2022-07-03T10:14:19;4.15;;;3.63;;
46084;SDS011;31823;47.032;8.310;2022-07-03T10:16:46;3.35;;;3.05;;
46084;SDS011;31823;47.032;8.310;2022-07-03T10:19:14;4.80;;;3.30;;
46084;SDS011;31823;47.032;8.310;2022-07-03T10:21:47;3.25;;;3.00;;
46084;SDS011;31823;47.032;8.310;2022-07-03T10:24:20;10.07;;;3.08;;
46084;SDS011;31823;47.032;8.310;2022-07-03T10:26:53;3.75;;;3.17;;
46084;SDS011;31823;47.032;8.310;2022-07-03T10:29:21;2.80;;;2.60;;
46084;SDS011;31823;47.032;8.310;2022-07-03T10:31:48;2.53;;;2.10;;
46084;SDS011;31823;47.032;8.310;2022-07-03T10:34:15;2.75;;;2.38;;
46084;SDS011;31823;47.032;8.310;2022-07-03T10:36:46;3.25;;;1.75;;
46084;SDS011;31823;47.032;8.310;2022-07-03T10:39:18;2.20;;;2.00;;
46084;SDS011;31823;47.032;8.310;2022-07-03T10:42:06;4.05;;;2.20;;
46084;SDS011;31823;47.032;8.310;2022-07-03T10:45:10;2.95;;;2.65;;
46084;SDS011;31823;47.032;8.310;2022-07-03T10:47:43;3.78;;;2.90;;
46084;SDS011;31823;47.032;8.310;2022-07-03T10:52:42;3.30;;;2.83;;
46084;SDS011;31823;47.032;8.310;2022-07-03T10:55:08;2.92;;;2.20;;
46084;SDS011;31823;47.032;8.310;2022-07-03T10:57:35;2.95;;;2.10;;
46084;SDS011;31823;47.032;8.310;2022-07-03T11:00:05;2.00;;;1.90;;
46084;SDS011;31823;47.032;8.310;2022-07-03T11:25:48;2.30;;;2.10;;
46084;SDS011;31823;47.032;8.310;2022-07-03T11:33:49;4.18;;;2.20;;
46084;SDS011;31823;47.032;8.310;2022-07-03T11:41:23;2.30;;;2.10;;
46084;SDS011;31823;47.032;8.310;2022-07-03T11:44:00;2.03;;;1.80;;
46084;SDS011;31823;47.032;8.310;2022-07-03T11:46:28;2.72;;;2.10;;
46084;SDS011;31823;47.032;8.310;2022-07-03T11:49:05;1.90;;;1.80;;
46084;SDS011;31823;47.032;8.310;2022-07-03T11:51:35;1.70;;;1.60;;
46084;SDS011;31823;47.032;8.310;2022-07-03T11:54:02;3.13;;;2.30;;
46084;SDS011;31823;47.032;8.310;2022-07-03T11:56:28;2.28;;;2.03;;
46084;SDS011;31823;47.032;8.310;2022-07-03T11:58:55;1.80;;;1.70;;
46084;SDS011;31823;47.032;8.310;2022-07-03T12:01:34;2.00;;;1.73;;
46084;SDS011;31823;47.032;8.310;2022-07-03T12:06:50;3.28;;;1.70;;
46084;SDS011;31823;47.032;8.310;2022-07-03T12:11:53;1.95;;;1.75;;
46084;SDS011;31823;47.032;8.310;2022-07-03T12:17:10;1.90;;;1.80;;
46084;SDS011;31823;47.032;8.310;2022-07-03T12:19:49;2.67;;;1.85;;
46084;SDS011;31823;47.032;8.310;2022-07-03T12:27:28;2.13;;;1.83;;
46084;SDS011;31823;47.032;8.310;2022-07-03T12:29:55;2.20;;;1.80;;
46084;SDS011;31823;47.032;8.310;2022-07-03T12:32:21;3.58;;;1.90;;
46084;SDS011;31823;47.032;8.310;2022-07-03T12:34:48;1.80;;;1.70;;
46084;SDS011;31823;47.032;8.310;2022-07-03T12:37:14;4.63;;;1.90;;
46084;SDS011;31823;47.032;8.310;2022-07-03T12:39:47;2.17;;;1.45;;
46084;SDS011;31823;47.032;8.310;2022-07-03T12:42:13;4.43;;;1.90;;
46084;SDS011;31823;47.032;8.310;2022-07-03T12:44:39;1.90;;;1.60;;
46084;SDS011;31823;47.032;8.310;2022-07-03T12:47:05;2.75;;;1.60;;
46084;SDS011;31823;47.032;8.310;2022-07-03T12:49:31;2.95;;;1.83;;
46084;SDS011;31823;47.032;8.310;2022-07-03T12:51:57;1.88;;;1.70;;
46084;SDS011;31823;47.032;8.310;2022-07-03T12:54:34;2.53;;;2.00;;
46084;SDS011;31823;47.032;8.310;2022-07-03T12:57:04;4.50;;;1.88;;
46084;SDS011;31823;47.032;8.310;2022-07-03T13:00:08;3.28;;;1.77;;
46084;SDS011;31823;47.032;8.310;2022-07-03T13:02:46;2.30;;;2.10;;
46084;SDS011;31823;47.032;8.310;2022-07-03T13:07:42;6.68;;;1.80;;
46084;SDS011;31823;47.032;8.310;2022-07-03T13:10:08;3.72;;;2.17;;
46084;SDS011;31823;47.032;8.310;2022-07-03T13:12:35;2.25;;;2.03;;
46084;SDS011;31823;47.032;8.310;2022-07-03T13:15:20;2.35;;;1.52;;
46084;SDS011;31823;47.032;8.310;2022-07-03T13:17:50;3.40;;;1.70;;
46084;SDS011;31823;47.032;8.310;2022-07-03T13:20:15;4.75;;;1.20;;
46084;SDS011;31823;47.032;8.310;2022-07-03T13:22:41;1.67;;;1.58;;
46084;SDS011;31823;47.032;8.310;2022-07-03T13:25:07;1.70;;;1.60;;
46084;SDS011;31823;47.032;8.310;2022-07-03T13:27:33;3.10;;;1.92;;
46084;SDS011;31823;47.032;8.310;2022-07-03T13:29:58;1.85;;;1.50;;
46084;SDS011;31823;47.032;8.310;2022-07-03T13:32:24;2.13;;;2.00;;
46084;SDS011;31823;47.032;8.310;2022-07-03T13:34:50;1.70;;;1.60;;
46084;SDS011;31823;47.032;8.310;2022-07-03T13:37:16;2.00;;;1.80;;
46084;SDS011;31823;47.032;8.310;2022-07-03T13:39:41;4.03;;;2.05;;
46084;SDS011;31823;47.032;8.310;2022-07-03T13:42:07;1.73;;;1.63;;
46084;SDS011;31823;47.032;8.310;2022-07-03T13:44:35;2.38;;;1.98;;
46084;SDS011;31823;47.032;8.310;2022-07-03T13:47:04;2.70;;;1.88;;
46084;SDS011;31823;47.032;8.310;2022-07-03T13:49:31;4.07;;;1.90;;
46084;SDS011;31823;47.032;8.310;2022-07-03T13:51:57;2.17;;;1.90;;
46084;SDS011;31823;47.032;8.310;2022-07-03T13:54:23;4.30;;;1.83;;
46084;SDS011;31823;47.032;8.310;2022-07-03T13:56:49;1.95;;;1.70;;
46084;SDS011;31823;47.032;8.310;2022-07-03T13:59:15;2.58;;;1.88;;
46084;SDS011;31823;47.032;8.310;2022-07-03T14:01:41;2.45;;;1.80;;
46084;SDS011;31823;47.032;8.310;2022-07-03T14:04:06;1.95;;;1.80;;
46084;SDS011;31823;47.032;8.310;2022-07-03T14:06:33;1.70;;;1.60;;
46084;SDS011;31823;47.032;8.310;2022-07-03T14:08:59;1.88;;;1.60;;
46084;SDS011;31823;47.032;8.310;2022-07-03T14:11:24;4.30;;;1.90;;
46084;SDS011;31823;47.032;8.310;2022-07-03T14:13:50;2.05;;;1.85;;
46084;SDS011;31823;47.032;8.310;2022-07-03T14:16:16;3.10;;;2.13;;
46084;SDS011;31823;47.032;8.310;2022-07-03T14:18:42;1.98;;;1.80;;
46084;SDS011;31823;47.032;8.310;2022-07-03T14:21:07;2.30;;;2.10;;
46084;SDS011;31823;47.032;8.310;2022-07-03T14:23:33;2.00;;;1.90;;
46084;SDS011;31823;47.032;8.310;2022-07-03T14:25:59;2.15;;;1.80;;
46084;SDS011;31823;47.032;8.310;2022-07-03T14:28:27;3.67;;;2.22;;
46084;SDS011;31823;47.032;8.310;2022-07-03T14:31:11;4.72;;;2.13;;
46084;SDS011;31823;47.032;8.310;2022-07-03T14:33:49;2.00;;;1.75;;
46084;SDS011;31823;47.032;8.310;2022-07-03T14:36:15;2.85;;;1.77;;
46084;SDS011;31823;47.032;8.310;2022-07-03T14:38:41;2.25;;;2.05;;
46084;SDS011;31823;47.032;8.310;2022-07-03T14:41:07;1.73;;;1.63;;
46084;SDS011;31823;47.032;8.310;2022-07-03T14:43:33;2.30;;;2.10;;
46084;SDS011;31823;47.032;8.310;2022-07-03T14:45:59;1.80;;;1.70;;
46084;SDS011;31823;47.032;8.310;2022-07-03T14:48:25;6.35;;;2.38;;
46084;SDS011;31823;47.032;8.310;2022-07-03T14:50:51;2.90;;;1.98;;
46084;SDS011;31823;47.032;8.310;2022-07-03T14:53:17;7.57;;;2.75;;
46084;SDS011;31823;47.032;8.310;2022-07-03T14:55:43;7.22;;;2.42;;
46084;SDS011;31823;47.032;8.310;2022-07-03T14:58:19;2.10;;;1.63;;
46084;SDS011;31823;47.032;8.310;2022-07-03T15:00:54;2.40;;;2.13;;
46084;SDS011;31823;47.032;8.310;2022-07-03T15:05:56;1.75;;;1.65;;
46084;SDS011;31823;47.032;8.310;2022-07-03T15:10:54;2.05;;;1.80;;
46084;SDS011;31823;47.032;8.310;2022-07-03T15:13:21;6.15;;;2.70;;
46084;SDS011;31823;47.032;8.310;2022-07-03T15:15:49;2.58;;;2.08;;
46084;SDS011;31823;47.032;8.310;2022-07-03T15:18:18;1.88;;;1.77;;
46084;SDS011;31823;47.032;8.310;2022-07-03T15:20:49;2.88;;;2.03;;
46084;SDS011;31823;47.032;8.310;2022-07-03T15:23:17;2.17;;;2.00;;
46084;SDS011;31823;47.032;8.310;2022-07-03T15:25:44;4.85;;;2.45;;
46084;SDS011;31823;47.032;8.310;2022-07-03T15:28:11;2.47;;;2.20;;
46084;SDS011;31823;47.032;8.310;2022-07-03T15:30:37;2.30;;;2.10;;
46084;SDS011;31823;47.032;8.310;2022-07-03T15:33:10;6.63;;;2.65;;
46084;SDS011;31823;47.032;8.310;2022-07-03T15:35:35;2.58;;;2.00;;
46084;SDS011;31823;47.032;8.310;2022-07-03T15:38:12;2.67;;;2.20;;
46084;SDS011;31823;47.032;8.310;2022-07-03T15:51:23;2.63;;;1.85;;
46084;SDS011;31823;47.032;8.310;2022-07-03T15:53:51;8.98;;;2.28;;
46084;SDS011;31823;47.032;8.310;2022-07-03T15:56:24;7.90;;;2.30;;
46084;SDS011;31823;47.032;8.310;2022-07-03T15:59:05;2.10;;;1.90;;
46084;SDS011;31823;47.032;8.310;2022-07-03T16:01:39;3.30;;;2.10;;
46084;SDS011;31823;47.032;8.310;2022-07-03T16:07:27;3.10;;;2.25;;
46084;SDS011;31823;47.032;8.310;2022-07-03T16:09:55;2.30;;;2.10;;
46084;SDS011;31823;47.032;8.310;2022-07-03T16:12:23;2.42;;;2.15;;
46084;SDS011;31823;47.032;8.310;2022-07-03T16:14:50;4.55;;;2.72;;
46084;SDS011;31823;47.032;8.310;2022-07-03T16:17:17;3.60;;;2.33;;
46084;SDS011;31823;47.032;8.310;2022-07-03T16:19:45;4.80;;;2.50;;
46084;SDS011;31823;47.032;8.310;2022-07-03T16:22:12;5.15;;;2.63;;
46084;SDS011;31823;47.032;8.310;2022-07-03T16:24:38;3.63;;;2.22;;
46084;SDS011;31823;47.032;8.310;2022-07-03T16:27:05;2.72;;;2.15;;
46084;SDS011;31823;47.032;8.310;2022-07-03T16:29:31;2.88;;;2.45;;
46084;SDS011;31823;47.032;8.310;2022-07-03T16:31:58;2.55;;;2.35;;
46084;SDS011;31823;47.032;8.310;2022-07-03T16:34:35;4.32;;;2.25;;
46084;SDS011;31823;47.032;8.310;2022-07-03T16:37:06;4.25;;;2.25;;
46084;SDS011;31823;47.032;8.310;2022-07-03T16:39:33;3.78;;;2.55;;
46084;SDS011;31823;47.032;8.310;2022-07-03T16:42:00;3.38;;;2.38;;
46084;SDS011;31823;47.032;8.310;2022-07-03T16:44:28;2.75;;;2.55;;
46084;SDS011;31823;47.032;8.310;2022-07-03T16:47:00;3.35;;;2.30;;
46084;SDS011;31823;47.032;8.310;2022-07-03T16:49:31;4.78;;;2.20;;
46084;SDS011;31823;47.032;8.310;2022-07-03T16:52:04;6.38;;;2.63;;
46084;SDS011;31823;47.032;8.310;2022-07-03T16:54:31;2.40;;;2.10;;
46084;SDS011;31823;47.032;8.310;2022-07-03T16:57:01;2.83;;;2.53;;
46084;SDS011;31823;47.032;8.310;2022-07-03T16:59:28;5.10;;;2.50;;
46084;SDS011;31823;47.032;8.310;2022-07-03T17:01:55;3.58;;;2.53;;